sensor_id;sensor_type;location;lat;lon;timestamp;pressure;altitude;pressure_sealevel;temperature
74915;BMP280;63475;45.140;-75.616;2023-04-01T00:00:58;100175.31;;;1.52
74915;BMP280;63475;45.140;-75.616;2023-04-01T00:01:59;100174.97;;;1.53
74915;BMP280;63475;45.140;-75.616;2023-04-01T00:03:00;100166.03;;;1.54
74915;BMP280;63475;45.140;-75.616;2023-04-01T00:04:02;100175.72;;;1.54
74915;BMP280;63475;45.140;-75.616;2023-04-01T00:05:03;100170.09;;;1.52
74915;BMP280;63475;45.140;-75.616;2023-04-01T00:06:04;100170.91;;;1.56
74915;BMP280;63475;45.140;-75.616;2023-04-01T00:07:05;100155.03;;;1.45
74915;BMP280;63475;45.140;-75.616;2023-04-01T00:08:07;100170.50;;;1.54
74915;BMP280;63475;45.140;-75.616;2023-04-01T00:09:08;100176.81;;;1.53
74915;BMP280;63475;45.140;-75.616;2023-04-01T00:10:11;100170.84;;;1.52
74915;BMP280;63475;45.140;-75.616;2023-04-01T00:11:12;100169.34;;;1.51
74915;BMP280;63475;45.140;-75.616;2023-04-01T00:12:13;100170.78;;;1.49
74915;BMP280;63475;45.140;-75.616;2023-04-01T00:13:14;100159.91;;;1.47
74915;BMP280;63475;45.140;-75.616;2023-04-01T00:14:16;100162.59;;;1.50
74915;BMP280;63475;45.140;-75.616;2023-04-01T00:15:17;100161.84;;;1.50
74915;BMP280;63475;45.140;-75.616;2023-04-01T00:16:18;100164.47;;;1.50
74915;BMP280;63475;45.140;-75.616;2023-04-01T00:17:19;100134.59;;;1.28
74915;BMP280;63475;45.140;-75.616;2023-04-01T00:18:21;100163.28;;;1.47
74915;BMP280;63475;45.140;-75.616;2023-04-01T00:19:22;100164.47;;;1.50
74915;BMP280;63475;45.140;-75.616;2023-04-01T00:20:23;100161.84;;;1.50
74915;BMP280;63475;45.140;-75.616;2023-04-01T00:21:24;100156.63;;;1.50
74915;BMP280;63475;45.140;-75.616;2023-04-01T00:22:26;100167.06;;;1.50
74915;BMP280;63475;45.140;-75.616;2023-04-01T00:23:27;100152.84;;;1.47
74915;BMP280;63475;45.140;-75.616;2023-04-01T00:24:29;100165.56;;;1.49
74915;BMP280;63475;45.140;-75.616;2023-04-01T00:25:30;100161.72;;;1.43
74915;BMP280;63475;45.140;-75.616;2023-04-01T00:26:31;100173.38;;;1.49
74915;BMP280;63475;45.140;-75.616;2023-04-01T00:27:32;100177.78;;;1.45
74915;BMP280;63475;45.140;-75.616;2023-04-01T00:28:34;100177.41;;;1.43
74915;BMP280;63475;45.140;-75.616;2023-04-01T00:29:36;100177.06;;;1.44
74915;BMP280;63475;45.140;-75.616;2023-04-01T00:30:37;100173.94;;;1.38
74915;BMP280;63475;45.140;-75.616;2023-04-01T00:31:39;100189.72;;;1.46
74915;BMP280;63475;45.140;-75.616;2023-04-01T00:32:40;100189.34;;;1.44
74915;BMP280;63475;45.140;-75.616;2023-04-01T00:33:41;100190.44;;;1.43
74915;BMP280;63475;45.140;-75.616;2023-04-01T00:34:42;100192.69;;;1.44
74915;BMP280;63475;45.140;-75.616;2023-04-01T00:35:45;100172.03;;;1.35
74915;BMP280;63475;45.140;-75.616;2023-04-01T00:36:46;100175.06;;;1.37
74915;BMP280;63475;45.140;-75.616;2023-04-01T00:37:47;100187.88;;;1.46
74915;BMP280;63475;45.140;-75.616;2023-04-01T00:38:48;100199.06;;;1.47
74915;BMP280;63475;45.140;-75.616;2023-04-01T00:39:50;100199.81;;;1.47
74915;BMP280;63475;45.140;-75.616;2023-04-01T00:40:57;100205.69;;;1.41
74915;BMP280;63475;45.140;-75.616;2023-04-01T00:42:01;100202.00;;;1.45
74915;BMP280;63475;45.140;-75.616;2023-04-01T00:43:09;100190.81;;;1.45
74915;BMP280;63475;45.140;-75.616;2023-04-01T00:44:28;100193.84;;;1.47
74915;BMP280;63475;45.140;-75.616;2023-04-01T00:45:39;100179.84;;;1.35
74915;BMP280;63475;45.140;-75.616;2023-04-01T00:46:40;100200.91;;;1.46
74915;BMP280;63475;45.140;-75.616;2023-04-01T00:47:41;100181.13;;;1.26
74915;BMP280;63475;45.140;-75.616;2023-04-01T00:48:51;100216.91;;;1.45
74915;BMP280;63475;45.140;-75.616;2023-04-01T00:49:54;100209.84;;;1.45
74915;BMP280;63475;45.140;-75.616;2023-04-01T00:52:04;100213.22;;;1.46
74915;BMP280;63475;45.140;-75.616;2023-04-01T00:53:07;100216.91;;;1.45
74915;BMP280;63475;45.140;-75.616;2023-04-01T00:54:09;100205.00;;;1.44
74915;BMP280;63475;45.140;-75.616;2023-04-01T00:55:12;100189.19;;;1.36
74915;BMP280;63475;45.140;-75.616;2023-04-01T00:57:57;100206.84;;;1.43
74915;BMP280;63475;45.140;-75.616;2023-04-01T00:59:02;100201.25;;;1.45
74915;BMP280;63475;45.140;-75.616;2023-04-01T01:00:10;100200.53;;;1.44
74915;BMP280;63475;45.140;-75.616;2023-04-01T01:01:13;100202.00;;;1.45
74915;BMP280;63475;45.140;-75.616;2023-04-01T01:02:15;100196.41;;;1.43
74915;BMP280;63475;45.140;-75.616;2023-04-01T01:03:16;100185.16;;;1.39
74915;BMP280;63475;45.140;-75.616;2023-04-01T01:04:24;100175.16;;;1.45
74915;BMP280;63475;45.140;-75.616;2023-04-01T01:08:25;100151.00;;;1.48
74915;BMP280;63475;45.140;-75.616;2023-04-01T01:09:41;100147.97;;;1.46
74915;BMP280;63475;45.140;-75.616;2023-04-01T01:10:49;100136.00;;;1.25
74915;BMP280;63475;45.140;-75.616;2023-04-01T01:11:57;100161.03;;;1.46
74915;BMP280;63475;45.140;-75.616;2023-04-01T01:13:25;100146.88;;;1.47
74915;BMP280;63475;45.140;-75.616;2023-04-01T01:14:50;100134.94;;;1.46
74915;BMP280;63475;45.140;-75.616;2023-04-01T01:16:04;100127.47;;;1.44
74915;BMP280;63475;45.140;-75.616;2023-04-01T01:26:34;100112.44;;;1.37
74915;BMP280;63475;45.140;-75.616;2023-04-01T01:27:40;100111.84;;;1.48
74915;BMP280;63475;45.140;-75.616;2023-04-01T01:30:30;100118.88;;;1.44
74915;BMP280;63475;45.140;-75.616;2023-04-01T01:33:24;100117.75;;;1.45
74915;BMP280;63475;45.140;-75.616;2023-04-01T01:35:54;100121.50;;;1.44
74915;BMP280;63475;45.140;-75.616;2023-04-01T01:37:01;100125.19;;;1.43
74915;BMP280;63475;45.140;-75.616;2023-04-01T01:38:07;100127.47;;;1.44
74915;BMP280;63475;45.140;-75.616;2023-04-01T01:39:10;100123.34;;;1.43
74915;BMP280;63475;45.140;-75.616;2023-04-01T01:40:12;100126.72;;;1.44
74915;BMP280;63475;45.140;-75.616;2023-04-01T01:41:15;100121.13;;;1.45
74915;BMP280;63475;45.140;-75.616;2023-04-01T01:42:18;100114.44;;;1.44
74915;BMP280;63475;45.140;-75.616;2023-04-01T01:43:24;100106.59;;;1.44
74915;BMP280;63475;45.140;-75.616;2023-04-01T01:44:28;100117.75;;;1.45
74915;BMP280;63475;45.140;-75.616;2023-04-01T01:45:33;100110.22;;;1.40
74915;BMP280;63475;45.140;-75.616;2023-04-01T01:46:36;100118.00;;;1.36
74915;BMP280;63475;45.140;-75.616;2023-04-01T01:47:40;100114.06;;;1.46
74915;BMP280;63475;45.140;-75.616;2023-04-01T01:48:42;100108.03;;;1.42
74915;BMP280;63475;45.140;-75.616;2023-04-01T01:49:45;100103.22;;;1.44
74915;BMP280;63475;45.140;-75.616;2023-04-01T01:50:47;100103.63;;;1.46
74915;BMP280;63475;45.140;-75.616;2023-04-01T01:51:49;100108.06;;;1.45
74915;BMP280;63475;45.140;-75.616;2023-04-01T01:52:50;100088.53;;;1.35
74915;BMP280;63475;45.140;-75.616;2023-04-01T01:53:51;100104.03;;;1.48
74915;BMP280;63475;45.140;-75.616;2023-04-01T01:54:54;100086.28;;;1.34
74915;BMP280;63475;45.140;-75.616;2023-04-01T01:55:55;100025.59;;;0.98
74915;BMP280;63475;45.140;-75.616;2023-04-01T01:57:05;100082.81;;;1.49
74915;BMP280;63475;45.140;-75.616;2023-04-01T01:58:22;100080.59;;;1.51
74915;BMP280;63475;45.140;-75.616;2023-04-01T01:59:25;100071.63;;;1.49
74915;BMP280;63475;45.140;-75.616;2023-04-01T02:00:28;100067.16;;;1.49
74915;BMP280;63475;45.140;-75.616;2023-04-01T02:01:32;100058.56;;;1.49
74915;BMP280;63475;45.140;-75.616;2023-04-01T02:02:34;100056.31;;;1.47
74915;BMP280;63475;45.140;-75.616;2023-04-01T02:03:37;100061.25;;;1.52
74915;BMP280;63475;45.140;-75.616;2023-04-01T02:04:42;100059.72;;;1.51
74915;BMP280;63475;45.140;-75.616;2023-04-01T02:05:44;100059.31;;;1.49
74915;BMP280;63475;45.140;-75.616;2023-04-01T02:07:20;100066.47;;;1.52
74915;BMP280;63475;45.140;-75.616;2023-04-01T02:08:26;100066.03;;;1.50
74915;BMP280;63475;45.140;-75.616;2023-04-01T02:09:28;100060.47;;;1.52
74915;BMP280;63475;45.140;-75.616;2023-04-01T02:10:31;100064.59;;;1.53
74915;BMP280;63475;45.140;-75.616;2023-04-01T02:11:59;100053.66;;;1.44
74915;BMP280;63475;45.140;-75.616;2023-04-01T02:13:05;100041.66;;;1.39
74915;BMP280;63475;45.140;-75.616;2023-04-01T02:14:26;100058.28;;;1.54
74915;BMP280;63475;45.140;-75.616;2023-04-01T02:15:31;100050.03;;;1.52
74915;BMP280;63475;45.140;-75.616;2023-04-01T02:16:40;100044.81;;;1.52
74915;BMP280;63475;45.140;-75.616;2023-04-01T02:17:46;100036.66;;;1.53
74915;BMP280;63475;45.140;-75.616;2023-04-01T02:18:49;100030.69;;;1.53
74915;BMP280;63475;45.140;-75.616;2023-04-01T02:20:15;100026.56;;;1.52
74915;BMP280;63475;45.140;-75.616;2023-04-01T02:21:18;100031.44;;;1.53
74915;BMP280;63475;45.140;-75.616;2023-04-01T02:22:24;99999.91;;;1.39
74915;BMP280;63475;45.140;-75.616;2023-04-01T02:23:28;100031.09;;;1.55
74915;BMP280;63475;45.140;-75.616;2023-04-01T02:24:31;100029.56;;;1.54
74915;BMP280;63475;45.140;-75.616;2023-04-01T02:25:36;100027.72;;;1.54
74915;BMP280;63475;45.140;-75.616;2023-04-01T02:26:39;100026.16;;;1.50
74915;BMP280;63475;45.140;-75.616;2023-04-01T02:27:43;100036.31;;;1.55
74915;BMP280;63475;45.140;-75.616;2023-04-01T02:28:46;100017.13;;;1.44
74915;BMP280;63475;45.140;-75.616;2023-04-01T02:29:50;100022.50;;;1.54
74915;BMP280;63475;45.140;-75.616;2023-04-01T02:30:52;100022.50;;;1.54
74915;BMP280;63475;45.140;-75.616;2023-04-01T02:31:53;100022.84;;;1.53
74915;BMP280;63475;45.140;-75.616;2023-04-01T02:32:57;100024.75;;;1.56
74915;BMP280;63475;45.140;-75.616;2023-04-01T02:33:59;100019.41;;;1.49
74915;BMP280;63475;45.140;-75.616;2023-04-01T02:35:01;100027.25;;;1.49
74915;BMP280;63475;45.140;-75.616;2023-04-01T02:36:11;100031.78;;;1.52
74915;BMP280;63475;45.140;-75.616;2023-04-01T02:37:13;100021.19;;;1.41
74915;BMP280;63475;45.140;-75.616;2023-04-01T02:38:14;100038.91;;;1.55
74915;BMP280;63475;45.140;-75.616;2023-04-01T02:39:16;100025.75;;;1.48
74915;BMP280;63475;45.140;-75.616;2023-04-01T02:40:19;100035.53;;;1.54
74915;BMP280;63475;45.140;-75.616;2023-04-01T02:41:20;100025.09;;;1.54
74915;BMP280;63475;45.140;-75.616;2023-04-01T02:42:21;100019.13;;;1.54
74915;BMP280;63475;45.140;-75.616;2023-04-01T02:43:23;100013.56;;;1.55
74915;BMP280;63475;45.140;-75.616;2023-04-01T02:44:24;100008.00;;;1.57
74915;BMP280;63475;45.140;-75.616;2023-04-01T02:45:25;99987.47;;;1.55
74915;BMP280;63475;45.140;-75.616;2023-04-01T02:46:26;99997.97;;;1.59
74915;BMP280;63475;45.140;-75.616;2023-04-01T02:47:27;99981.91;;;1.57
74915;BMP280;63475;45.140;-75.616;2023-04-01T02:48:31;99977.44;;;1.57
74915;BMP280;63475;45.140;-75.616;2023-04-01T02:49:32;99971.88;;;1.59
74915;BMP280;63475;45.140;-75.616;2023-04-01T02:50:33;99937.34;;;1.43
74915;BMP280;63475;45.140;-75.616;2023-04-01T02:51:35;99954.72;;;1.58
74915;BMP280;63475;45.140;-75.616;2023-04-01T02:52:36;99950.59;;;1.57
74915;BMP280;63475;45.140;-75.616;2023-04-01T02:53:37;99953.19;;;1.57
74915;BMP280;63475;45.140;-75.616;2023-04-01T02:54:38;99949.09;;;1.56
74915;BMP280;63475;45.140;-75.616;2023-04-01T02:55:40;99886.59;;;1.17
74915;BMP280;63475;45.140;-75.616;2023-04-01T02:56:41;99937.53;;;1.57
74915;BMP280;63475;45.140;-75.616;2023-04-01T02:57:42;99940.22;;;1.60
74915;BMP280;63475;45.140;-75.616;2023-04-01T02:58:43;99922.53;;;1.50
74915;BMP280;63475;45.140;-75.616;2023-04-01T02:59:44;99918.00;;;1.47
74915;BMP280;63475;45.140;-75.616;2023-04-01T03:00:45;99928.25;;;1.59
74915;BMP280;63475;45.140;-75.616;2023-04-01T03:01:46;99918.56;;;1.60
74915;BMP280;63475;45.140;-75.616;2023-04-01T03:02:48;99923.03;;;1.59
74915;BMP280;63475;45.140;-75.616;2023-04-01T03:03:49;99892.53;;;1.37
74915;BMP280;63475;45.140;-75.616;2023-04-01T03:04:50;99921.19;;;1.60
74915;BMP280;63475;45.140;-75.616;2023-04-01T03:05:51;99896.69;;;1.42
74915;BMP280;63475;45.140;-75.616;2023-04-01T03:06:56;99924.97;;;1.62
74915;BMP280;63475;45.140;-75.616;2023-04-01T03:07:57;99924.97;;;1.62
74915;BMP280;63475;45.140;-75.616;2023-04-01T03:08:58;99922.03;;;1.64
74915;BMP280;63475;45.140;-75.616;2023-04-01T03:09:59;99916.72;;;1.60
74915;BMP280;63475;45.140;-75.616;2023-04-01T03:11:00;99916.81;;;1.64
74915;BMP280;63475;45.140;-75.616;2023-04-01T03:12:02;99902.06;;;1.52
74915;BMP280;63475;45.140;-75.616;2023-04-01T03:13:03;99926.50;;;1.63
74915;BMP280;63475;45.140;-75.616;2023-04-01T03:14:04;99927.59;;;1.62
74915;BMP280;63475;45.140;-75.616;2023-04-01T03:15:06;99929.41;;;1.62
74915;BMP280;63475;45.140;-75.616;2023-04-01T03:16:07;99922.38;;;1.62
74915;BMP280;63475;45.140;-75.616;2023-04-01T03:17:08;99889.56;;;1.38
74915;BMP280;63475;45.140;-75.616;2023-04-01T03:18:09;99918.97;;;1.62
74915;BMP280;63475;45.140;-75.616;2023-04-01T03:19:10;99912.25;;;1.61
74915;BMP280;63475;45.140;-75.616;2023-04-01T03:20:12;99890.31;;;1.39
74915;BMP280;63475;45.140;-75.616;2023-04-01T03:21:18;99922.28;;;1.59
74915;BMP280;63475;45.140;-75.616;2023-04-01T03:22:20;99928.59;;;1.58
74915;BMP280;63475;45.140;-75.616;2023-04-01T03:23:21;99929.38;;;1.58
74915;BMP280;63475;45.140;-75.616;2023-04-01T03:24:24;99920.44;;;1.59
74915;BMP280;63475;45.140;-75.616;2023-04-01T03:25:25;99919.69;;;1.59
74915;BMP280;63475;45.140;-75.616;2023-04-01T03:26:29;99926.41;;;1.60
74915;BMP280;63475;45.140;-75.616;2023-04-01T03:27:30;99926.06;;;1.61
74915;BMP280;63475;45.140;-75.616;2023-04-01T03:28:31;99876.13;;;1.36
74915;BMP280;63475;45.140;-75.616;2023-04-01T03:29:32;99913.00;;;1.61
74915;BMP280;63475;45.140;-75.616;2023-04-01T03:30:33;99891.38;;;1.61
74915;BMP280;63475;45.140;-75.616;2023-04-01T03:31:35;99874.41;;;1.48
74915;BMP280;63475;45.140;-75.616;2023-04-01T03:32:36;99880.66;;;1.66
74915;BMP280;63475;45.140;-75.616;2023-04-01T03:33:37;99877.16;;;1.58
74915;BMP280;63475;45.140;-75.616;2023-04-01T03:34:38;99873.84;;;1.61
74915;BMP280;63475;45.140;-75.616;2023-04-01T03:35:40;99882.03;;;1.60
74915;BMP280;63475;45.140;-75.616;2023-04-01T03:36:41;99889.13;;;1.59
74915;BMP280;63475;45.140;-75.616;2023-04-01T03:37:42;99891.25;;;1.54
74915;BMP280;63475;45.140;-75.616;2023-04-01T03:38:44;99892.81;;;1.58
74915;BMP280;63475;45.140;-75.616;2023-04-01T03:39:45;99891.03;;;1.62
74915;BMP280;63475;45.140;-75.616;2023-04-01T03:40:46;99891.03;;;1.62
74915;BMP280;63475;45.140;-75.616;2023-04-01T03:41:48;99886.16;;;1.61
74915;BMP280;63475;45.140;-75.616;2023-04-01T03:42:49;99882.03;;;1.60
74915;BMP280;63475;45.140;-75.616;2023-04-01T03:43:51;99867.47;;;1.59
74915;BMP280;63475;45.140;-75.616;2023-04-01T03:44:53;99861.81;;;1.53
74915;BMP280;63475;45.140;-75.616;2023-04-01T03:45:54;99869.28;;;1.55
74915;BMP280;63475;45.140;-75.616;2023-04-01T03:46:58;99863.00;;;1.59
74915;BMP280;63475;45.140;-75.616;2023-04-01T03:47:59;99863.00;;;1.59
74915;BMP280;63475;45.140;-75.616;2023-04-01T03:49:00;99859.25;;;1.57
74915;BMP280;63475;45.140;-75.616;2023-04-01T03:50:01;99858.53;;;1.60
74915;BMP280;63475;45.140;-75.616;2023-04-01T03:51:06;99850.72;;;1.60
74915;BMP280;63475;45.140;-75.616;2023-04-01T03:52:10;99853.69;;;1.58
74915;BMP280;63475;45.140;-75.616;2023-04-01T03:53:11;99852.22;;;1.61
74915;BMP280;63475;45.140;-75.616;2023-04-01T03:54:12;99853.72;;;1.62
74915;BMP280;63475;45.140;-75.616;2023-04-01T03:55:13;99858.63;;;1.63
74915;BMP280;63475;45.140;-75.616;2023-04-01T03:56:15;99856.34;;;1.62
74915;BMP280;63475;45.140;-75.616;2023-04-01T03:57:16;99857.88;;;1.63
74915;BMP280;63475;45.140;-75.616;2023-04-01T03:58:17;99856.78;;;1.64
74915;BMP280;63475;45.140;-75.616;2023-04-01T03:59:18;99853.72;;;1.62
74915;BMP280;63475;45.140;-75.616;2023-04-01T04:00:19;99829.63;;;1.46
74915;BMP280;63475;45.140;-75.616;2023-04-01T04:01:21;99846.69;;;1.62
74915;BMP280;63475;45.140;-75.616;2023-04-01T04:02:22;99851.13;;;1.62
74915;BMP280;63475;45.140;-75.616;2023-04-01T04:03:24;99829.34;;;1.51
74915;BMP280;63475;45.140;-75.616;2023-04-01T04:04:25;99819.19;;;1.42
74915;BMP280;63475;45.140;-75.616;2023-04-01T04:05:27;99849.69;;;1.64
74915;BMP280;63475;45.140;-75.616;2023-04-01T04:06:28;99847.44;;;1.63
74915;BMP280;63475;45.140;-75.616;2023-04-01T04:07:29;99848.94;;;1.64
74915;BMP280;63475;45.140;-75.616;2023-04-01T04:08:30;99832.41;;;1.56
74915;BMP280;63475;45.140;-75.616;2023-04-01T04:09:32;99852.66;;;1.63
74915;BMP280;63475;45.140;-75.616;2023-04-01T04:10:33;99828.13;;;1.45
74915;BMP280;63475;45.140;-75.616;2023-04-01T04:11:36;99852.56;;;1.59
74915;BMP280;63475;45.140;-75.616;2023-04-01T04:12:37;99855.19;;;1.59
74915;BMP280;63475;45.140;-75.616;2023-04-01T04:13:38;99852.16;;;1.57
74915;BMP280;63475;45.140;-75.616;2023-04-01T04:14:39;99835.97;;;1.45
74915;BMP280;63475;45.140;-75.616;2023-04-01T04:15:40;99842.03;;;1.52
74915;BMP280;63475;45.140;-75.616;2023-04-01T04:16:41;99854.84;;;1.61
74915;BMP280;63475;45.140;-75.616;2023-04-01T04:17:44;99860.06;;;1.61
74915;BMP280;63475;45.140;-75.616;2023-04-01T04:18:45;99849.63;;;1.61
74915;BMP280;63475;45.140;-75.616;2023-04-01T04:19:47;99837.56;;;1.53
74915;BMP280;63475;45.140;-75.616;2023-04-01T04:20:48;99838.41;;;1.60
74915;BMP280;63475;45.140;-75.616;2023-04-01T04:21:51;99828.22;;;1.52
74915;BMP280;63475;45.140;-75.616;2023-04-01T04:22:52;99826.56;;;1.63
74915;BMP280;63475;45.140;-75.616;2023-04-01T04:23:54;99817.50;;;1.57
74915;BMP280;63475;45.140;-75.616;2023-04-01T04:24:55;99818.28;;;1.61
74915;BMP280;63475;45.140;-75.616;2023-04-01T04:26:01;99813.50;;;1.63
74915;BMP280;63475;45.140;-75.616;2023-04-01T04:27:03;99810.53;;;1.64
74915;BMP280;63475;45.140;-75.616;2023-04-01T04:28:05;99805.69;;;1.63
74915;BMP280;63475;45.140;-75.616;2023-04-01T04:29:06;99809.03;;;1.63
74915;BMP280;63475;45.140;-75.616;2023-04-01T04:30:08;99772.97;;;1.43
74915;BMP280;63475;45.140;-75.616;2023-04-01T04:31:09;99798.91;;;1.62
74915;BMP280;63475;45.140;-75.616;2023-04-01T04:32:10;99798.16;;;1.61
74915;BMP280;63475;45.140;-75.616;2023-04-01T04:33:12;99792.94;;;1.61
74915;BMP280;63475;45.140;-75.616;2023-04-01T04:34:13;99786.22;;;1.60
74915;BMP280;63475;45.140;-75.616;2023-04-01T04:35:14;99794.06;;;1.60
74915;BMP280;63475;45.140;-75.616;2023-04-01T04:36:16;99794.81;;;1.61
74915;BMP280;63475;45.140;-75.616;2023-04-01T04:37:17;99794.06;;;1.60
74915;BMP280;63475;45.140;-75.616;2023-04-01T04:38:18;99771.88;;;1.47
74915;BMP280;63475;45.140;-75.616;2023-04-01T04:39:19;99758.38;;;1.38
74915;BMP280;63475;45.140;-75.616;2023-04-01T04:40:20;99784.69;;;1.56
74915;BMP280;63475;45.140;-75.616;2023-04-01T04:41:21;99785.13;;;1.61
74915;BMP280;63475;45.140;-75.616;2023-04-01T04:42:22;99777.94;;;1.55
74915;BMP280;63475;45.140;-75.616;2023-04-01T04:43:23;99772.44;;;1.60
74915;BMP280;63475;45.140;-75.616;2023-04-01T04:44:25;99766.84;;;1.61
74915;BMP280;63475;45.140;-75.616;2023-04-01T04:45:26;99742.03;;;1.45
74915;BMP280;63475;45.140;-75.616;2023-04-01T04:46:27;99760.88;;;1.61
74915;BMP280;63475;45.140;-75.616;2023-04-01T04:47:28;99724.50;;;1.42
74915;BMP280;63475;45.140;-75.616;2023-04-01T04:48:29;99737.31;;;1.54
74915;BMP280;63475;45.140;-75.616;2023-04-01T04:49:31;99750.13;;;1.62
74915;BMP280;63475;45.140;-75.616;2023-04-01T04:50:32;99746.41;;;1.63
74915;BMP280;63475;45.140;-75.616;2023-04-01T04:51:33;99735.88;;;1.60
74915;BMP280;63475;45.140;-75.616;2023-04-01T04:52:36;99740.44;;;1.63
74915;BMP280;63475;45.140;-75.616;2023-04-01T04:53:37;99717.09;;;1.47
74915;BMP280;63475;45.140;-75.616;2023-04-01T04:54:38;99726.50;;;1.55
74915;BMP280;63475;45.140;-75.616;2023-04-01T04:55:49;99748.25;;;1.63
74915;BMP280;63475;45.140;-75.616;2023-04-01T04:56:53;99715.25;;;1.48
74915;BMP280;63475;45.140;-75.616;2023-04-01T04:57:55;99745.22;;;1.61
74915;BMP280;63475;45.140;-75.616;2023-04-01T04:58:56;99735.44;;;1.54
74915;BMP280;63475;45.140;-75.616;2023-04-01T04:59:57;99738.47;;;1.56
74915;BMP280;63475;45.140;-75.616;2023-04-01T05:00:58;99741.50;;;1.62
74915;BMP280;63475;45.140;-75.616;2023-04-01T05:02:01;99736.28;;;1.62
74915;BMP280;63475;45.140;-75.616;2023-04-01T05:03:03;99731.78;;;1.59
74915;BMP280;63475;45.140;-75.616;2023-04-01T05:04:04;99735.97;;;1.63
74915;BMP280;63475;45.140;-75.616;2023-04-01T05:05:06;99727.31;;;1.59
74915;BMP280;63475;45.140;-75.616;2023-04-01T05:06:08;99668.31;;;1.21
74915;BMP280;63475;45.140;-75.616;2023-04-01T05:07:10;99730.38;;;1.65
74915;BMP280;63475;45.140;-75.616;2023-04-01T05:08:11;99728.13;;;1.63
74915;BMP280;63475;45.140;-75.616;2023-04-01T05:09:12;99676.00;;;1.37
74915;BMP280;63475;45.140;-75.616;2023-04-01T05:10:13;99712.50;;;1.67
74915;BMP280;63475;45.140;-75.616;2023-04-01T05:11:17;99706.19;;;1.68
74915;BMP280;63475;45.140;-75.616;2023-04-01T05:12:18;99707.66;;;1.65
74915;BMP280;63475;45.140;-75.616;2023-04-01T05:13:19;99703.47;;;1.61
74915;BMP280;63475;45.140;-75.616;2023-04-01T05:14:21;99686.94;;;1.50
74915;BMP280;63475;45.140;-75.616;2023-04-01T05:15:23;99697.91;;;1.62
74915;BMP280;63475;45.140;-75.616;2023-04-01T05:16:24;99701.22;;;1.59
74915;BMP280;63475;45.140;-75.616;2023-04-01T05:17:25;99709.44;;;1.61
74915;BMP280;63475;45.140;-75.616;2023-04-01T05:18:26;99708.69;;;1.61
74915;BMP280;63475;45.140;-75.616;2023-04-01T05:19:27;99703.88;;;1.63
74915;BMP280;63475;45.140;-75.616;2023-04-01T05:20:28;99673.13;;;1.49
74915;BMP280;63475;45.140;-75.616;2023-04-01T05:21:29;99684.50;;;1.64
74915;BMP280;63475;45.140;-75.616;2023-04-01T05:22:30;99689.75;;;1.64
74915;BMP280;63475;45.140;-75.616;2023-04-01T05:23:32;99663.09;;;1.51
74915;BMP280;63475;45.140;-75.616;2023-04-01T05:24:33;99683.41;;;1.65
74915;BMP280;63475;45.140;-75.616;2023-04-01T05:25:37;99674.84;;;1.64
74915;BMP280;63475;45.140;-75.616;2023-04-01T05:26:38;99666.25;;;1.64
74915;BMP280;63475;45.140;-75.616;2023-04-01T05:27:39;99659.16;;;1.64
74915;BMP280;63475;45.140;-75.616;2023-04-01T05:28:41;99650.63;;;1.67
74915;BMP280;63475;45.140;-75.616;2023-04-01T05:29:42;99654.34;;;1.66
74915;BMP280;63475;45.140;-75.616;2023-04-01T05:30:44;99645.41;;;1.67
74915;BMP280;63475;45.140;-75.616;2023-04-01T05:31:45;99643.16;;;1.66
74915;BMP280;63475;45.140;-75.616;2023-04-01T05:32:46;99636.81;;;1.67
74915;BMP280;63475;45.140;-75.616;2023-04-01T05:33:47;99624.88;;;1.66
74915;BMP280;63475;45.140;-75.616;2023-04-01T05:34:52;99607.13;;;1.45
74915;BMP280;63475;45.140;-75.616;2023-04-01T05:35:54;99641.28;;;1.66
74915;BMP280;63475;45.140;-75.616;2023-04-01T05:36:56;99646.88;;;1.65
74915;BMP280;63475;45.140;-75.616;2023-04-01T05:37:57;99655.81;;;1.64
74915;BMP280;63475;45.140;-75.616;2023-04-01T05:38:58;99653.59;;;1.66
74915;BMP280;63475;45.140;-75.616;2023-04-01T05:39:59;99646.50;;;1.66
74915;BMP280;63475;45.140;-75.616;2023-04-01T05:41:01;99643.16;;;1.66
74915;BMP280;63475;45.140;-75.616;2023-04-01T05:42:04;99637.22;;;1.69
74915;BMP280;63475;45.140;-75.616;2023-04-01T05:43:05;99637.22;;;1.69
74915;BMP280;63475;45.140;-75.616;2023-04-01T05:44:07;99631.16;;;1.61
74915;BMP280;63475;45.140;-75.616;2023-04-01T05:45:09;99630.50;;;1.68
74915;BMP280;63475;45.140;-75.616;2023-04-01T05:46:10;99639.09;;;1.68
74915;BMP280;63475;45.140;-75.616;2023-04-01T05:47:11;99630.09;;;1.66
74915;BMP280;63475;45.140;-75.616;2023-04-01T05:48:12;99615.06;;;1.56
74915;BMP280;63475;45.140;-75.616;2023-04-01T05:49:14;99633.47;;;1.66
74915;BMP280;63475;45.140;-75.616;2023-04-01T05:50:15;99626.03;;;1.68
74915;BMP280;63475;45.140;-75.616;2023-04-01T05:51:17;99617.84;;;1.70
74915;BMP280;63475;45.140;-75.616;2023-04-01T05:52:18;99617.84;;;1.70
74915;BMP280;63475;45.140;-75.616;2023-04-01T05:53:19;99622.69;;;1.72
74915;BMP280;63475;45.140;-75.616;2023-04-01T05:54:20;99621.56;;;1.69
74915;BMP280;63475;45.140;-75.616;2023-04-01T05:55:22;99610.34;;;1.65
74915;BMP280;63475;45.140;-75.616;2023-04-01T05:56:23;99612.59;;;1.66
74915;BMP280;63475;45.140;-75.616;2023-04-01T05:57:24;99606.22;;;1.64
74915;BMP280;63475;45.140;-75.616;2023-04-01T05:58:25;99607.72;;;1.65
74915;BMP280;63475;45.140;-75.616;2023-04-01T05:59:26;99598.78;;;1.66
74915;BMP280;63475;45.140;-75.616;2023-04-01T06:00:27;99590.59;;;1.67
74915;BMP280;63475;45.140;-75.616;2023-04-01T06:01:28;99589.09;;;1.66
74915;BMP280;63475;45.140;-75.616;2023-04-01T06:02:29;99579.75;;;1.65
74915;BMP280;63475;45.140;-75.616;2023-04-01T06:03:30;99584.59;;;1.63
74915;BMP280;63475;45.140;-75.616;2023-04-01T06:04:39;99583.53;;;1.68
74915;BMP280;63475;45.140;-75.616;2023-04-01T06:05:42;99580.91;;;1.68
74915;BMP280;63475;45.140;-75.616;2023-04-01T06:06:44;99582.03;;;1.67
74915;BMP280;63475;45.140;-75.616;2023-04-01T06:07:45;99575.31;;;1.66
74915;BMP280;63475;45.140;-75.616;2023-04-01T06:08:47;99573.03;;;1.64
74915;BMP280;63475;45.140;-75.616;2023-04-01T06:09:49;99564.09;;;1.65
74915;BMP280;63475;45.140;-75.616;2023-04-01T06:11:11;99565.97;;;1.65
74915;BMP280;63475;45.140;-75.616;2023-04-01T06:15:23;99557.38;;;1.64
74915;BMP280;63475;45.140;-75.616;2023-04-01T06:17:43;99550.31;;;1.65
74915;BMP280;63475;45.140;-75.616;2023-04-01T06:18:53;99539.88;;;1.65
74915;BMP280;63475;45.140;-75.616;2023-04-01T06:21:18;99542.47;;;1.65